Time;durP1;ratioP1;P1;durP2;ratioP2;P2;SDS_P1;SDS_P2;PMS_P1;PMS_P2;Temp;Humidity;BMP_temperature;BMP_pressure;BME280_temperature;BME280_humidity;BME280_pressure;Samples;Min_cycle;Max_cycle;Signal;HPM_P1;HPM_P2
2021/10/27 00:00:34;;;;;;;;;6.50;6.50;;;;;15.10;65.33;102100.25;4960504;28;45181;-66
2021/10/27 00:03:00;;;;;;;;;6.25;6.00;;;;;15.12;65.59;102102.91;4958090;28;45462;-66
2021/10/27 00:05:26;;;;;;;;;5.50;5.25;;;;;15.11;65.32;102102.00;4959678;28;46086;-66
2021/10/27 00:07:51;;;;;;;;;5.00;5.00;;;;;15.12;65.58;102111.84;4958099;28;47257;-66
2021/10/27 00:10:17;;;;;;;;;8.00;7.25;;;;;15.12;65.22;102114.53;4959943;28;45226;-66
2021/10/27 00:12:44;;;;;;;;;6.25;5.75;;;;;15.12;65.21;102108.28;4959420;28;45382;-66
2021/10/27 00:15:12;;;;;;;;;6.50;5.75;;;;;15.08;65.32;102110.16;4977651;28;45505;-66
2021/10/27 00:17:38;;;;;;;;;5.00;5.00;;;;;15.08;65.44;102107.47;4958261;28;45338;-66
2021/10/27 00:20:05;;;;;;;;;6.75;5.75;;;;;15.07;65.58;102108.41;4959779;28;45252;-67
2021/10/27 00:22:31;;;;;;;;;5.75;5.00;;;;;15.05;65.48;102110.28;4957361;28;45431;-67
2021/10/27 00:24:56;;;;;;;;;5.75;5.75;;;;;15.02;65.57;102110.34;4959131;28;45505;-67
2021/10/27 00:27:22;;;;;;;;;6.50;5.25;;;;;15.03;65.40;102114.78;4974001;28;45906;-67
2021/10/27 00:29:47;;;;;;;;;6.00;6.00;;;;;14.99;65.50;102115.81;4958775;28;45332;-67
2021/10/27 00:32:13;;;;;;;;;6.75;6.25;;;;;14.99;65.42;102118.50;4973940;28;45293;-66
2021/10/27 00:34:38;;;;;;;;;7.25;6.00;;;;;14.98;65.28;102114.03;4959387;28;45548;-67
2021/10/27 00:37:03;;;;;;;;;6.50;6.50;;;;;14.96;65.40;102121.28;4959172;28;46186;-66
2021/10/27 00:39:29;;;;;;;;;7.75;7.00;;;;;14.98;65.29;102135.56;4971534;28;45377;-66
2021/10/27 00:41:55;;;;;;;;;7.00;5.25;;;;;14.94;65.34;102115.94;4959399;28;46817;-66
2021/10/27 00:44:22;;;;;;;;;8.00;7.25;;;;;14.92;65.35;102120.50;4959304;28;45465;-66
2021/10/27 00:46:59;;;;;;;;;7.50;6.50;;;;;14.91;65.30;102121.41;4954636;28;45394;-66
2021/10/27 00:49:27;;;;;;;;;6.50;6.00;;;;;14.92;65.42;102119.63;4952015;28;46551;-66
2021/10/27 00:51:52;;;;;;;;;6.50;6.25;;;;;14.89;65.47;102125.94;4981016;28;45335;-66
2021/10/27 00:54:17;;;;;;;;;4.50;4.25;;;;;14.86;65.68;102119.78;4997630;28;45509;-66
2021/10/27 00:56:44;;;;;;;;;7.50;7.00;;;;;14.87;65.25;102127.81;4973803;28;48274;-66
2021/10/27 00:59:10;;;;;;;;;5.75;5.25;;;;;14.84;65.51;102127.88;4958976;28;45406;-66
2021/10/27 01:01:35;;;;;;;;;8.00;7.00;;;;;14.76;65.39;102125.41;4959409;28;45352;-66
2021/10/27 01:04:01;;;;;;;;;6.00;6.00;;;;;14.80;65.66;102120.81;4959167;28;45378;-66
2021/10/27 01:06:27;;;;;;;;;6.50;6.00;;;;;14.81;65.40;102122.59;4958678;28;45597;-66
2021/10/27 01:08:52;;;;;;;;;9.00;7.00;;;;;14.80;65.50;102115.44;4959075;28;45392;-66
2021/10/27 01:11:18;;;;;;;;;9.00;9.00;;;;;14.79;65.76;102121.75;4958879;28;45742;-66
2021/10/27 01:13:43;;;;;;;;;7.75;5.75;;;;;14.80;65.51;102123.50;4958812;28;45299;-66
2021/10/27 01:16:08;;;;;;;;;5.25;5.25;;;;;14.75;65.57;102107.53;4958386;28;45165;-66
2021/10/27 01:18:35;;;;;;;;;7.00;7.00;;;;;14.73;65.50;102117.41;4957550;28;45351;-66
2021/10/27 01:21:00;;;;;;;;;7.50;7.50;;;;;14.71;65.62;102111.22;4956346;28;45267;-66
2021/10/27 01:23:26;;;;;;;;;7.75;7.75;;;;;14.75;65.53;102109.31;4958836;28;45330;-66
2021/10/27 01:25:51;;;;;;;;;8.00;8.00;;;;;14.72;65.47;102109.44;4970448;28;47196;-66
2021/10/27 01:28:17;;;;;;;;;10.50;9.50;;;;;14.67;65.69;102098.81;4974827;28;45295;-66
2021/10/27 01:30:43;;;;;;;;;11.00;11.00;;;;;14.71;65.63;102108.53;4957836;28;45422;-66
2021/10/27 01:33:08;;;;;;;;;9.50;9.50;;;;;14.68;65.76;102102.34;4958043;28;45367;-66
2021/10/27 01:35:34;;;;;;;;;8.50;7.50;;;;;14.71;65.54;102108.53;4958607;28;46016;-66
2021/10/27 01:37:59;;;;;;;;;9.00;8.00;;;;;14.67;65.53;102097.91;4958468;28;45307;-66
2021/10/27 01:40:25;;;;;;;;;8.25;7.00;;;;;14.67;65.79;102101.50;4960060;28;45378;-66
2021/10/27 01:42:55;;;;;;;;;10.00;10.00;;;;;14.64;65.64;102093.50;4957999;28;45299;-66
2021/10/27 01:45:21;;;;;;;;;11.00;9.75;;;;;14.64;65.66;102094.38;4958405;28;46187;-66
2021/10/27 01:47:46;;;;;;;;;11.50;10.00;;;;;14.62;65.22;102090.00;4953982;28;45145;-66
2021/10/27 01:50:14;;;;;;;;;9.50;8.25;;;;;14.63;65.49;102091.72;4957939;28;45475;-66
2021/10/27 01:52:39;;;;;;;;;10.25;8.50;;;;;14.61;65.50;102090.91;5013632;28;45405;-66
2021/10/27 01:55:05;;;;;;;;;8.00;8.00;;;;;14.60;65.76;102095.41;4962112;28;46175;-66
2021/10/27 01:57:31;;;;;;;;;8.00;8.00;;;;;14.58;65.59;102088.25;4958469;28;45323;-66
2021/10/27 01:59:56;;;;;;;;;10.00;10.00;;;;;14.56;65.40;102082.06;4958350;28;45315;-66
2021/10/27 02:02:21;;;;;;;;;9.75;9.50;;;;;14.58;65.66;102085.56;4993035;28;45453;-66
2021/10/27 02:04:47;;;;;;;;;10.25;10.25;;;;;14.56;65.54;102082.06;4958227;28;45401;-66
2021/10/27 02:07:12;;;;;;;;;9.00;9.00;;;;;14.54;65.32;102079.41;4958149;28;45441;-66
2021/10/27 02:09:37;;;;;;;;;10.50;9.50;;;;;14.54;65.54;102081.22;4958065;28;45294;-66
2021/10/27 02:12:05;;;;;;;;;9.75;8.75;;;;;14.51;65.79;102073.25;4957952;28;45496;-66
2021/10/27 02:14:31;;;;;;;;;6.75;6.00;;;;;14.52;65.55;102080.41;4957976;28;45389;-66
2021/10/27 02:16:57;;;;;;;;;7.00;6.00;;;;;14.53;65.61;102072.25;4954511;28;45337;-66
2021/10/27 02:19:22;;;;;;;;;10.75;8.25;;;;;14.48;65.93;102068.81;4957610;28;45343;-66
2021/10/27 02:21:48;;;;;;;;;7.25;7.25;;;;;14.51;65.79;102070.56;4956255;28;45661;-66
2021/10/27 02:24:13;;;;;;;;;12.50;10.00;;;;;14.50;65.88;102069.69;4959787;28;47255;-66
2021/10/27 02:26:39;;;;;;;;;9.00;9.00;;;;;14.46;65.52;102059.94;4970997;28;45379;-66
2021/10/27 02:29:04;;;;;;;;;8.25;8.25;;;;;14.44;65.68;102051.91;4958440;28;45330;-66
2021/10/27 02:31:29;;;;;;;;;10.00;8.00;;;;;14.42;65.57;102059.13;4972249;28;45306;-66
2021/10/27 02:33:55;;;;;;;;;11.75;8.75;;;;;14.44;65.35;102070.72;4957949;28;45469;-66
2021/10/27 02:36:20;;;;;;;;;9.00;8.75;;;;;14.44;65.57;102067.16;4972578;28;45437;-66
2021/10/27 02:38:46;;;;;;;;;11.50;9.75;;;;;14.42;65.50;102075.25;4958242;28;45366;-66
2021/10/27 02:41:13;;;;;;;;;10.00;8.75;;;;;14.39;65.51;102075.34;4958092;28;45374;-66
2021/10/27 02:43:39;;;;;;;;;11.00;9.00;;;;;14.39;65.60;102071.78;4960464;28;45219;-66
2021/10/27 02:46:05;;;;;;;;;9.25;8.00;;;;;14.36;65.54;102069.16;4975437;28;45327;-66
2021/10/27 02:48:30;;;;;;;;;10.75;9.50;;;;;14.36;65.68;102074.53;4957482;28;45343;-66
2021/10/27 02:50:56;;;;;;;;;9.00;9.00;;;;;14.36;65.63;102072.72;4960535;28;46459;-66
2021/10/27 02:53:21;;;;;;;;;7.75;7.00;;;;;14.32;65.54;102068.38;5020779;28;46282;-66
2021/10/27 02:55:46;;;;;;;;;6.50;6.50;;;;;14.34;65.80;102077.25;4960646;28;45354;-66
2021/10/27 02:58:12;;;;;;;;;7.00;7.00;;;;;14.34;65.77;102074.56;4960683;28;45429;-66
2021/10/27 03:00:37;;;;;;;;;7.50;7.00;;;;;14.35;65.93;102075.44;4987795;28;45341;-66
2021/10/27 03:03:03;;;;;;;;;8.75;7.25;;;;;14.33;65.73;102072.81;4967750;28;45186;-66
2021/10/27 03:05:29;;;;;;;;;8.50;7.00;;;;;14.31;65.96;102071.97;4960423;28;45401;-66
2021/10/27 03:07:55;;;;;;;;;8.00;6.75;;;;;14.31;65.79;102071.09;4960112;28;45429;-66
2021/10/27 03:10:20;;;;;;;;;10.75;7.00;;;;;14.32;65.71;102072.88;4960558;28;45407;-66
2021/10/27 03:12:46;;;;;;;;;7.00;7.00;;;;;14.30;65.63;102070.22;4960088;28;45360;-66
2021/10/27 03:15:11;;;;;;;;;10.25;8.25;;;;;14.26;65.86;102073.91;4960101;28;45391;-66
2021/10/27 03:17:37;;;;;;;;;10.50;8.50;;;;;14.23;65.77;102065.91;4964890;28;45370;-66
2021/10/27 03:20:03;;;;;;;;;12.75;10.75;;;;;14.27;65.53;102075.69;4967934;28;45497;-66
2021/10/27 03:22:28;;;;;;;;;8.25;8.25;;;;;14.25;66.08;102066.78;4959755;28;45321;-66
2021/10/27 03:24:54;;;;;;;;;8.25;7.75;;;;;14.20;65.73;102058.84;4971829;28;45310;-66
2021/10/27 03:27:19;;;;;;;;;11.00;11.00;;;;;14.22;65.96;102062.34;4977173;28;45413;-66
2021/10/27 03:29:45;;;;;;;;;12.25;10.50;;;;;14.19;65.92;102061.56;4960241;28;45331;-66
2021/10/27 03:32:10;;;;;;;;;12.00;10.00;;;;;14.21;65.63;102054.34;4959390;28;45227;-66
2021/10/27 03:34:37;;;;;;;;;10.25;9.00;;;;;14.21;65.80;102054.34;4960224;28;45325;-66
2021/10/27 03:37:03;;;;;;;;;10.00;8.50;;;;;14.20;65.83;102052.56;4957802;28;45347;-66
2021/10/27 03:39:28;;;;;;;;;11.75;9.50;;;;;14.18;65.83;102059.78;4952877;28;45375;-66
2021/10/27 03:41:54;;;;;;;;;10.25;10.25;;;;;14.14;65.86;102050.94;4959512;28;46338;-66
2021/10/27 03:44:20;;;;;;;;;10.25;9.00;;;;;14.18;65.91;102055.31;4960165;28;45387;-66
2021/10/27 03:46:45;;;;;;;;;10.50;9.00;;;;;14.18;65.87;102054.41;4955910;28;45324;-66
2021/10/27 03:49:11;;;;;;;;;11.25;10.50;;;;;14.18;65.74;102057.09;4956354;28;45606;-66
2021/10/27 03:51:36;;;;;;;;;12.50;10.75;;;;;14.18;65.67;102065.16;4970716;28;45477;-66
2021/10/27 03:54:02;;;;;;;;;11.75;11.75;;;;;14.16;65.60;102065.19;5006824;28;45358;-66
2021/10/27 03:56:28;;;;;;;;;12.00;11.75;;;;;14.14;65.83;102060.81;4959623;28;45252;-66
2021/10/27 03:58:53;;;;;;;;;10.75;9.00;;;;;14.11;65.87;102060.88;4959873;28;45326;-66
2021/10/27 04:01:19;;;;;;;;;12.25;12.00;;;;;14.13;65.91;102065.28;4994486;28;45291;-66
2021/10/27 04:03:44;;;;;;;;;11.75;10.25;;;;;14.15;65.76;102070.59;4959748;28;45231;-66
2021/10/27 04:06:10;;;;;;;;;10.75;9.50;;;;;14.05;65.48;102059.25;4959543;28;45302;-66
2021/10/27 04:08:35;;;;;;;;;13.75;11.25;;;;;14.11;65.69;102064.44;4974575;28;45679;-66
2021/10/27 04:11:01;;;;;;;;;9.00;9.00;;;;;14.12;65.67;102063.53;4972220;28;46030;-66
2021/10/27 04:13:26;;;;;;;;;10.50;9.75;;;;;14.11;65.91;102067.13;4958397;28;45324;-66
2021/10/27 04:15:52;;;;;;;;;12.00;10.00;;;;;14.11;65.99;102058.19;4959196;28;45502;-69
2021/10/27 04:18:18;;;;;;;;;13.00;10.25;;;;;14.06;65.68;102051.13;4959351;28;45685;-68
2021/10/27 04:20:44;;;;;;;;;10.25;10.25;;;;;14.03;65.74;102042.28;4959514;28;45271;-68
2021/10/27 04:23:09;;;;;;;;;10.00;10.00;;;;;14.03;65.77;102045.88;4959329;28;45336;-68
2021/10/27 04:25:35;;;;;;;;;11.75;10.50;;;;;14.06;65.62;102055.63;4958974;28;45567;-69
2021/10/27 04:28:01;;;;;;;;;15.75;13.50;;;;;14.06;65.26;102061.88;4974349;28;45456;-69
2021/10/27 04:30:26;;;;;;;;;12.00;10.50;;;;;14.02;65.91;102060.19;4958812;28;46104;-69
2021/10/27 04:32:52;;;;;;;;;12.00;10.75;;;;;14.05;65.73;102068.19;4959057;28;45418;-66
2021/10/27 04:35:17;;;;;;;;;14.25;13.00;;;;;14.03;65.78;102066.44;4959372;28;45429;-66
2021/10/27 04:37:44;;;;;;;;;13.75;11.25;;;;;14.01;65.43;102071.84;4959430;28;45402;-66
2021/10/27 04:40:14;;;;;;;;;12.25;10.25;;;;;13.99;65.69;102079.06;4959231;28;45212;-66
2021/10/27 04:42:40;;;;;;;;;12.00;12.00;;;;;13.96;65.44;102070.22;4958732;28;45735;-66
2021/10/27 04:45:07;;;;;;;;;11.25;11.00;;;;;13.95;65.15;102077.41;4974125;28;45367;-66
2021/10/27 04:47:32;;;;;;;;;11.25;11.00;;;;;13.94;65.42;102082.78;4948893;28;45410;-66
2021/10/27 04:49:58;;;;;;;;;11.50;11.00;;;;;13.86;65.51;102072.25;4956222;28;46176;-66
2021/10/27 04:52:24;;;;;;;;;9.25;7.50;;;;;13.88;65.57;102073.97;5003483;28;45215;-66
2021/10/27 04:54:50;;;;;;;;;10.00;10.00;;;;;13.89;65.32;102074.84;4973556;28;45234;-66
2021/10/27 04:57:16;;;;;;;;;12.25;10.50;;;;;13.84;65.55;102076.78;4950400;28;45252;-66
2021/10/27 04:59:44;;;;;;;;;11.00;11.00;;;;;13.79;65.33;102068.81;4958809;28;45472;-67
2021/10/27 05:02:11;;;;;;;;;10.25;10.25;;;;;13.84;65.36;102079.44;5000292;28;45516;-66
2021/10/27 05:04:37;;;;;;;;;15.50;12.00;;;;;13.79;65.83;102071.50;4972710;28;45402;-66
2021/10/27 05:07:04;;;;;;;;;15.00;12.00;;;;;13.82;65.88;102074.13;4957260;28;45364;-66
2021/10/27 05:09:30;;;;;;;;;14.00;13.25;;;;;13.76;65.57;102066.22;4957300;28;47254;-66
2021/10/27 05:11:55;;;;;;;;;13.50;11.75;;;;;13.71;65.57;102066.34;4958506;28;45445;-66
2021/10/27 05:14:20;;;;;;;;;15.00;13.75;;;;;13.76;65.87;102085.00;4958948;28;45315;-66
2021/10/27 05:16:46;;;;;;;;;13.50;13.00;;;;;13.75;65.65;102077.88;4958560;28;45668;-66
2021/10/27 05:19:12;;;;;;;;;19.00;17.25;;;;;13.70;65.53;102069.94;4958648;28;45398;-66
2021/10/27 05:21:38;;;;;;;;;19.00;17.75;;;;;13.68;65.98;102081.63;4958355;28;45635;-66
2021/10/27 05:24:04;;;;;;;;;16.50;13.50;;;;;13.69;65.65;102078.03;4957771;28;45470;-69
2021/10/27 05:26:29;;;;;;;;;14.00;12.75;;;;;13.68;65.96;102076.25;4963399;28;45745;-69
2021/10/27 05:28:55;;;;;;;;;16.75;16.00;;;;;13.65;66.04;102074.53;4970392;28;46024;-68
2021/10/27 05:31:21;;;;;;;;;11.75;11.25;;;;;13.65;65.95;102071.84;4957035;28;45452;-68
2021/10/27 05:33:46;;;;;;;;;14.50;14.50;;;;;13.64;65.97;102086.19;4958366;28;45434;-68
2021/10/27 05:36:12;;;;;;;;;15.75;14.00;;;;;13.59;65.92;102065.75;4958392;28;45410;-69
2021/10/27 05:38:38;;;;;;;;;16.50;13.25;;;;;13.62;65.86;102069.25;4958364;28;46004;-69
2021/10/27 05:41:05;;;;;;;;;14.00;13.25;;;;;13.56;66.11;102057.78;4958513;28;45185;-68
2021/10/27 05:43:32;;;;;;;;;15.75;14.75;;;;;13.60;65.67;102064.81;4957906;28;45316;-69
2021/10/27 05:45:58;;;;;;;;;18.50;17.50;;;;;13.55;66.33;102066.72;4958353;28;45180;-69
2021/10/27 05:48:28;;;;;;;;;17.00;16.50;;;;;13.53;65.65;102056.03;4973308;28;47087;-69
2021/10/27 05:51:14;;;;;;;;;19.00;14.00;;;;;13.52;66.23;102048.91;4958583;28;45526;-70
2021/10/27 05:56:23;;;;;;;;;20.00;15.75;;;;;13.46;66.04;102051.75;4946835;28;45594;-69
2021/10/27 05:58:50;;;;;;;;;16.00;15.50;;;;;13.45;66.10;102052.69;4956798;28;46255;-70
2021/10/27 06:01:16;;;;;;;;;17.75;16.00;;;;;13.47;66.04;102057.06;4997725;28;45389;-74
2021/10/27 06:03:42;;;;;;;;;12.75;11.00;;;;;13.47;65.88;102056.19;4952882;28;45385;-75
2021/10/27 06:06:07;;;;;;;;;17.00;13.75;;;;;13.47;66.10;102057.06;4956788;28;45426;-81
2021/10/27 06:08:34;;;;;;;;;14.25;14.00;;;;;13.44;66.07;102041.03;4978387;28;45393;-81
2021/10/27 06:11:07;;;;;;;;;11.75;10.00;;;;;13.50;65.82;102050.75;4957707;28;45465;-80
2021/10/27 06:13:35;;;;;;;;;19.25;16.25;;;;;13.48;66.04;102049.91;4958084;28;45283;-72
2021/10/27 06:16:01;;;;;;;;;15.75;15.00;;;;;13.47;66.14;102053.50;4957117;28;45466;-70
2021/10/27 06:18:27;;;;;;;;;15.75;14.00;;;;;13.46;66.07;102055.28;4957820;28;45395;-71
2021/10/27 06:20:52;;;;;;;;;16.50;15.25;;;;;13.49;65.85;102065.97;4957759;28;45618;-71
2021/10/27 06:23:18;;;;;;;;;20.50;17.75;;;;;13.48;65.80;102060.63;4956695;28;45492;-71
2021/10/27 06:25:43;;;;;;;;;20.25;19.50;;;;;13.47;65.97;102062.44;4957525;28;45338;-71
2021/10/27 06:28:13;;;;;;;;;20.50;18.50;;;;;13.46;66.04;102060.66;4975900;28;46414;-71
2021/10/27 06:30:46;;;;;;;;;19.25;17.25;;;;;13.47;65.80;102066.94;4956910;28;45433;-71
2021/10/27 06:35:53;;;;;;;;;17.25;17.25;;;;;13.44;65.82;102070.53;4956932;28;45646;-72
2021/10/27 06:48:39;;;;;;;;;23.00;17.25;;;;;13.39;66.07;102068.91;4956813;28;45382;-71
2021/10/27 06:51:04;;;;;;;;;20.25;18.75;;;;;13.40;65.83;102076.00;4956250;28;45648;-70
2021/10/27 06:53:30;;;;;;;;;19.50;17.50;;;;;13.32;66.19;102079.75;4985952;28;45170;-70
2021/10/27 06:55:56;;;;;;;;;22.25;19.50;;;;;13.32;66.03;102082.44;4957637;28;45385;-70
2021/10/27 06:58:23;;;;;;;;;18.75;16.75;;;;;13.34;66.20;102088.66;4954142;28;47120;-70
2021/10/27 07:00:50;;;;;;;;;20.50;19.50;;;;;13.32;66.06;102087.81;4996503;28;45310;-70
2021/10/27 07:03:32;;;;;;;;;20.50;19.00;;;;;13.28;66.22;102087.88;4978804;28;45414;-70
2021/10/27 07:16:37;;;;;;;;;21.50;19.25;;;;;13.21;66.37;102105.00;4972431;28;45649;-69
2021/10/27 07:19:02;;;;;;;;;21.00;20.00;;;;;13.18;66.01;102097.03;4957579;28;45379;-70
2021/10/27 07:21:27;;;;;;;;;22.25;19.75;;;;;13.19;66.18;102102.38;4955276;28;45342;-70
2021/10/27 07:23:53;;;;;;;;;22.25;21.75;;;;;13.20;66.30;102108.59;4955602;28;45310;-70
2021/10/27 07:26:20;;;;;;;;;21.25;20.50;;;;;13.16;66.29;102105.09;4955893;28;45564;-71
2021/10/27 07:28:48;;;;;;;;;27.75;23.25;;;;;13.16;66.33;102108.69;4992658;28;46243;-71
2021/10/27 07:31:16;;;;;;;;;23.75;21.50;;;;;13.08;66.48;102096.34;4979183;28;45775;-71
2021/10/27 07:33:42;;;;;;;;;21.75;19.25;;;;;13.18;66.38;102122.06;4966362;28;45481;-70
2021/10/27 07:39:53;;;;;;;;;22.75;20.25;;;;;13.20;66.46;102122.00;4958396;28;45699;-70
2021/10/27 07:41:41;;;;;;;;;19.75;19.25;;;;;13.15;66.46;102122.13;5006348;28;45673;-67
2021/10/27 07:44:14;;;;;;;;;21.25;20.00;;;;;13.18;66.22;102129.22;4963428;28;45526;-67
2021/10/27 07:46:42;;;;;;;;;24.50;20.00;;;;;13.18;66.33;102134.56;4980496;28;45783;-67
2021/10/27 07:49:07;;;;;;;;;22.25;21.25;;;;;13.21;66.55;102131.81;4976566;28;45489;-68
2021/10/27 07:51:33;;;;;;;;;26.25;22.75;;;;;13.22;66.36;102126.44;4968253;28;45348;-68
2021/10/27 07:53:58;;;;;;;;;29.00;23.00;;;;;13.23;66.52;102130.91;4987543;28;45971;-68
2021/10/27 07:56:23;;;;;;;;;23.00;21.25;;;;;13.27;66.44;102137.94;4957454;28;45446;-68
2021/10/27 07:58:50;;;;;;;;;25.50;23.25;;;;;13.26;66.43;102133.47;4959151;28;45946;-68
2021/10/27 08:01:16;;;;;;;;;21.50;19.50;;;;;13.18;66.46;102123.84;4960499;28;45311;-67
2021/10/27 08:03:42;;;;;;;;;20.75;19.25;;;;;13.31;66.41;102146.81;4959709;28;45414;-67
2021/10/27 08:06:10;;;;;;;;;19.50;19.00;;;;;13.28;66.45;102142.41;4959782;28;45192;-68
2021/10/27 08:08:35;;;;;;;;;19.00;18.75;;;;;13.36;66.12;102149.44;4959593;28;47069;-67
2021/10/27 08:11:01;;;;;;;;;21.00;21.00;;;;;13.33;66.27;102147.69;4959882;28;45379;-68
2021/10/27 08:13:27;;;;;;;;;20.25;17.25;;;;;13.35;66.50;102151.22;4958090;28;45241;-68
2021/10/27 08:15:55;;;;;;;;;21.00;19.75;;;;;13.34;66.50;102149.47;4958655;28;45457;-68
2021/10/27 08:18:20;;;;;;;;;20.00;18.50;;;;;13.31;66.41;102142.34;4959172;28;45232;-68
2021/10/27 08:20:46;;;;;;;;;25.25;18.50;;;;;13.28;66.16;102153.13;4959671;28;45253;-68
2021/10/27 08:23:14;;;;;;;;;18.50;18.50;;;;;13.23;66.21;102143.41;4959669;28;45231;-68
2021/10/27 08:25:43;;;;;;;;;18.00;18.00;;;;;13.20;66.34;102147.03;4959243;28;45436;-68
2021/10/27 08:28:17;;;;;;;;;20.75;20.50;;;;;13.17;66.41;102155.16;5023689;28;46254;-67
2021/10/27 08:31:01;;;;;;;;;23.75;20.75;;;;;13.11;67.10;102149.91;4959137;28;45299;-70
2021/10/27 08:35:55;;;;;;;;;25.75;21.75;;;;;13.07;67.01;102148.22;4958958;28;45489;-65
2021/10/27 08:38:20;;;;;;;;;26.75;22.75;;;;;12.99;66.86;102134.94;4973891;28;48067;-68
2021/10/27 08:40:46;;;;;;;;;25.75;22.00;;;;;13.00;67.05;102136.72;4957387;28;45161;-67
2021/10/27 08:43:12;;;;;;;;;23.00;21.00;;;;;13.07;66.92;102138.38;4959469;28;45314;-68
2021/10/27 08:45:42;;;;;;;;;19.50;19.00;;;;;13.10;67.38;102137.44;4958572;28;45251;-71
2021/10/27 08:48:09;;;;;;;;;21.00;20.50;;;;;13.11;66.65;102134.72;4989305;28;45414;-74
2021/10/27 08:50:34;;;;;;;;;29.25;23.25;;;;;13.12;67.20;102130.22;4958875;28;45338;-72
2021/10/27 08:53:01;;;;;;;;;19.50;19.50;;;;;13.16;67.51;102131.91;4973102;28;45480;-73
2021/10/27 08:55:27;;;;;;;;;19.75;19.75;;;;;13.19;67.47;102137.22;4969265;28;45520;-73
2021/10/27 08:57:53;;;;;;;;;22.75;22.25;;;;;13.23;67.44;102133.56;4957596;28;46892;-73
2021/10/27 09:00:26;;;;;;;;;24.25;22.25;;;;;13.27;67.06;102131.72;4961362;28;45278;-73
2021/10/27 09:05:34;;;;;;;;;31.25;26.75;;;;;13.30;67.34;102124.47;4955801;28;45560;-73
2021/10/27 09:36:39;;;;;;;;;33.00;29.75;;;;;13.47;67.25;102123.25;4988216;28;45510;-74
2021/10/27 10:06:20;;;;;;;;;30.25;29.00;;;;;13.68;67.55;102133.50;4955403;28;45355;-74
2021/10/27 10:08:46;;;;;;;;;29.75;24.75;;;;;13.71;66.99;102129.84;4957159;28;45253;-73
2021/10/27 10:11:12;;;;;;;;;30.50;28.25;;;;;13.69;67.69;102119.16;4957714;28;45442;-74
2021/10/27 10:13:39;;;;;;;;;33.00;31.00;;;;;13.70;67.18;102126.28;4954609;28;45532;-74
2021/10/27 10:16:06;;;;;;;;;29.50;27.00;;;;;13.71;67.18;102129.84;4950373;28;45313;-74
2021/10/27 10:18:33;;;;;;;;;31.00;29.50;;;;;13.76;67.28;102130.63;4955966;28;45386;-74
2021/10/27 10:20:59;;;;;;;;;29.75;28.75;;;;;13.80;67.30;102132.34;4965348;28;45283;-74
2021/10/27 10:23:25;;;;;;;;;29.50;25.00;;;;;13.85;67.25;102133.09;4966345;28;46113;-74
2021/10/27 10:25:52;;;;;;;;;35.50;31.75;;;;;13.89;67.53;102132.09;4957257;28;45700;-74
2021/10/27 10:28:20;;;;;;;;;29.75;28.50;;;;;13.88;67.50;102138.41;4957372;28;45409;-74
2021/10/27 10:30:51;;;;;;;;;26.50;25.75;;;;;13.91;67.67;102126.69;4957010;28;45354;-74
2021/10/27 10:33:17;;;;;;;;;37.75;33.75;;;;;13.97;67.32;102129.22;4955565;28;45978;-74
2021/10/27 10:36:04;;;;;;;;;41.25;34.75;;;;;13.99;67.41;102134.56;4943059;28;45825;-74
2021/10/27 10:41:30;;;;;;;;;28.75;27.50;;;;;13.98;67.39;102122.06;4957290;28;45804;-74
2021/10/27 11:00:37;;;;;;;;;27.75;27.75;;;;;14.30;67.32;102107.81;4956879;28;45692;-74
2021/10/27 11:23:13;;;;;;;;;21.00;21.00;;;;;14.58;66.99;102073.03;4944588;28;45579;-75
2021/10/27 11:25:52;;;;;;;;;20.75;18.00;;;;;14.66;66.93;102082.72;4970489;28;45597;-76
2021/10/27 11:39:50;;;;;;;;;19.00;17.00;;;;;14.79;66.63;102066.19;4955393;28;45440;-74
2021/10/27 11:42:34;;;;;;;;;17.25;15.50;;;;;14.80;66.60;102056.31;4954501;28;45543;-75
2021/10/27 11:48:25;;;;;;;;;21.50;21.50;;;;;14.89;66.41;102041.75;4962434;28;45746;-74
2021/10/27 11:50:51;;;;;;;;;24.00;21.75;;;;;14.96;66.30;102051.38;4970121;28;47265;-75
2021/10/27 11:53:28;;;;;;;;;24.00;19.00;;;;;15.01;66.16;102049.44;4955553;28;45719;-74
2021/10/27 11:55:55;;;;;;;;;21.50;19.25;;;;;15.06;66.23;102043.91;4955097;28;45583;-74
2021/10/27 11:58:33;;;;;;;;;19.25;16.75;;;;;15.11;66.30;102039.28;4955393;28;45418;-73
2021/10/27 12:01:01;;;;;;;;;19.75;18.75;;;;;15.08;66.15;102021.41;4970708;28;48539;-72
2021/10/27 12:03:35;;;;;;;;;18.75;15.50;;;;;15.20;66.22;102041.66;4955978;28;45656;-74
2021/10/27 12:06:05;;;;;;;;;16.25;15.50;;;;;15.23;66.28;102032.63;4954915;28;45521;-81
2021/10/27 12:09:06;;;;;;;;;17.00;16.25;;;;;15.24;65.95;102023.66;4949941;28;45590;-74
2021/10/27 12:15:22;;;;;;;;;15.75;14.75;;;;;15.32;65.84;102018.91;5012804;28;45738;-75
2021/10/27 12:18:17;;;;;;;;;13.75;13.25;;;;;15.32;65.58;101997.38;4963620;28;45478;-74
2021/10/27 12:20:12;;;;;;;;;16.25;15.00;;;;;15.35;65.60;101990.09;4955243;28;45370;-74
2021/10/27 12:22:37;;;;;;;;;14.25;13.75;;;;;15.42;65.45;101995.25;4961566;28;45846;-74
2021/10/27 12:25:08;;;;;;;;;17.00;15.75;;;;;15.44;65.15;101988.03;4958374;28;45501;-74
2021/10/27 12:30:03;;;;;;;;;14.50;13.75;;;;;15.50;64.99;101980.63;4957585;28;45565;-74
2021/10/27 12:32:32;;;;;;;;;13.00;12.00;;;;;15.48;65.23;101963.63;4954863;28;45607;-75
2021/10/27 12:35:10;;;;;;;;;14.75;13.00;;;;;15.52;65.44;101970.69;4945819;28;45701;-74
2021/10/27 12:37:54;;;;;;;;;15.75;14.50;;;;;15.58;65.19;101966.91;4960436;28;45500;-74
2021/10/27 12:43:11;;;;;;;;;9.75;9.25;;;;;15.69;65.22;101955.78;4989204;28;45664;-75
2021/10/27 12:45:38;;;;;;;;;14.00;14.00;;;;;15.71;64.97;101952.09;4959304;28;45620;-74
2021/10/27 12:48:09;;;;;;;;;14.00;14.00;;;;;15.77;64.88;101950.16;4967067;28;45461;-74
2021/10/27 12:50:35;;;;;;;;;7.00;6.75;;;;;15.82;64.98;101954.47;4949587;28;45489;-73
2021/10/27 12:53:03;;;;;;;;;13.25;13.25;;;;;15.83;64.45;101948.13;4961852;28;45417;-73
2021/10/27 12:55:40;;;;;;;;;13.25;12.25;;;;;15.84;64.53;101944.50;4958961;28;45313;-73
2021/10/27 12:58:18;;;;;;;;;12.00;12.00;;;;;15.84;64.66;101941.81;4958724;28;45533;-75
2021/10/27 13:01:08;;;;;;;;;12.25;12.25;;;;;15.84;64.62;101930.19;4965175;28;45549;-74
2021/10/27 13:06:28;;;;;;;;;12.00;12.00;;;;;15.97;64.22;101926.13;4959703;28;45521;-73
2021/10/27 13:22:04;;;;;;;;;11.50;10.25;;;;;16.11;64.39;101904.91;4958356;28;45275;-73
2021/10/27 13:30:07;;;;;;;;;8.00;8.00;;;;;16.13;63.66;101893.22;4956517;28;45555;-73
2021/10/27 13:32:33;;;;;;;;;12.00;11.00;;;;;16.24;63.76;101893.72;4981524;28;45403;-73
2021/10/27 13:34:59;;;;;;;;;10.00;10.00;;;;;16.24;62.87;101885.63;4965955;28;46241;-73
2021/10/27 13:37:27;;;;;;;;;8.50;8.50;;;;;16.27;63.48;101883.69;4976337;28;45795;-73
2021/10/27 13:39:53;;;;;;;;;10.00;10.00;;;;;16.29;63.44;101879.13;4957541;28;45283;-73
2021/10/27 13:45:07;;;;;;;;;8.75;7.75;;;;;16.40;63.28;101886.78;4972525;28;46086;-73
2021/10/27 13:47:47;;;;;;;;;9.25;8.00;;;;;16.42;63.00;101884.91;5022130;28;45403;-73
2021/10/27 13:58:31;;;;;;;;;11.00;9.75;;;;;16.54;62.18;101864.69;4955035;28;45410;-73
2021/10/27 14:09:04;;;;;;;;;5.75;5.75;;;;;16.67;61.99;101857.88;4957203;28;45507;-73
2021/10/27 14:11:34;;;;;;;;;7.00;6.00;;;;;16.67;61.52;101849.78;5013395;28;45387;-74
2021/10/27 14:14:07;;;;;;;;;7.75;6.00;;;;;16.70;61.72;101851.47;4964767;28;45612;-73
2021/10/27 14:16:56;;;;;;;;;5.50;5.50;;;;;16.68;61.51;101839.88;4964194;28;48463;-71
2021/10/27 15:23:00;;;;;;;;;6.75;5.00;;;;;16.96;60.86;101803.72;4956227;28;45949;-74
2021/10/27 15:30:43;;;;;;;;;6.75;4.25;;;;;16.96;60.23;101791.09;4952714;28;45147;-75
2021/10/27 15:35:58;;;;;;;;;5.50;4.25;;;;;17.00;60.00;101794.53;4956043;28;45454;-74
2021/10/27 15:51:48;;;;;;;;;5.00;4.75;;;;;17.02;60.01;101785.44;4973725;28;45433;-74
2021/10/27 15:54:15;;;;;;;;;5.75;4.50;;;;;16.97;59.85;101778.47;4999368;28;45449;-74